sensor_id;sensor_type;location;lat;lon;timestamp;P1;durP1;ratioP1;P2;durP2;ratioP2
9264;SDS011;4669;49.594;10.958;2023-09-30T04:26:57;6.63;;;3.67;;
9264;SDS011;4669;49.594;10.958;2023-09-30T04:32:03;4.00;;;2.35;;
9264;SDS011;4669;49.594;10.958;2023-09-30T04:37:06;5.63;;;2.25;;
9264;SDS011;4669;49.594;10.958;2023-09-30T04:42:10;4.07;;;2.47;;
9264;SDS011;4669;49.594;10.958;2023-09-30T04:47:12;3.83;;;2.15;;
9264;SDS011;4669;49.594;10.958;2023-09-30T04:52:14;3.55;;;2.20;;
9264;SDS011;4669;49.594;10.958;2023-09-30T04:57:18;7.05;;;2.42;;
9264;SDS011;4669;49.594;10.958;2023-09-30T05:02:20;5.47;;;2.40;;
9264;SDS011;4669;49.594;10.958;2023-09-30T05:07:22;5.60;;;2.47;;
9264;SDS011;4669;49.594;10.958;2023-09-30T05:12:25;4.35;;;2.35;;
9264;SDS011;4669;49.594;10.958;2023-09-30T05:17:27;4.93;;;2.50;;
9264;SDS011;4669;49.594;10.958;2023-09-30T05:22:29;6.13;;;2.65;;
9264;SDS011;4669;49.594;10.958;2023-09-30T05:27:33;3.42;;;2.30;;
9264;SDS011;4669;49.594;10.958;2023-09-30T05:32:34;4.88;;;2.42;;
9264;SDS011;4669;49.594;10.958;2023-09-30T05:37:39;4.28;;;2.65;;
9264;SDS011;4669;49.594;10.958;2023-09-30T05:42:42;5.53;;;2.97;;
9264;SDS011;4669;49.594;10.958;2023-09-30T05:47:45;11.93;;;8.30;;
9264;SDS011;4669;49.594;10.958;2023-09-30T05:52:47;3.80;;;2.55;;
9264;SDS011;4669;49.594;10.958;2023-09-30T05:57:52;5.70;;;2.33;;
9264;SDS011;4669;49.594;10.958;2023-09-30T06:02:54;6.90;;;3.05;;
9264;SDS011;4669;49.594;10.958;2023-09-30T06:07:56;6.72;;;2.85;;
9264;SDS011;4669;49.594;10.958;2023-09-30T06:12:59;6.72;;;2.80;;
9264;SDS011;4669;49.594;10.958;2023-09-30T06:18:02;5.88;;;2.85;;
9264;SDS011;4669;49.594;10.958;2023-09-30T06:23:05;6.05;;;2.70;;
9264;SDS011;4669;49.594;10.958;2023-09-30T06:28:09;5.97;;;2.50;;
9264;SDS011;4669;49.594;10.958;2023-09-30T06:33:11;5.38;;;2.38;;
9264;SDS011;4669;49.594;10.958;2023-09-30T06:38:15;5.72;;;2.83;;
9264;SDS011;4669;49.594;10.958;2023-09-30T06:43:20;6.10;;;2.63;;
9264;SDS011;4669;49.594;10.958;2023-09-30T06:48:22;4.40;;;2.53;;
9264;SDS011;4669;49.594;10.958;2023-09-30T06:53:25;7.43;;;2.67;;
9264;SDS011;4669;49.594;10.958;2023-09-30T06:58:28;6.82;;;4.07;;
9264;SDS011;4669;49.594;10.958;2023-09-30T07:03:30;5.93;;;2.58;;
9264;SDS011;4669;49.594;10.958;2023-09-30T07:08:33;7.07;;;2.75;;
9264;SDS011;4669;49.594;10.958;2023-09-30T07:13:36;5.28;;;2.53;;
9264;SDS011;4669;49.594;10.958;2023-09-30T07:18:38;5.03;;;2.60;;
9264;SDS011;4669;49.594;10.958;2023-09-30T07:23:40;5.10;;;2.40;;
9264;SDS011;4669;49.594;10.958;2023-09-30T07:28:43;6.90;;;2.95;;
9264;SDS011;4669;49.594;10.958;2023-09-30T07:33:45;6.35;;;2.67;;
9264;SDS011;4669;49.594;10.958;2023-09-30T07:38:47;6.88;;;3.33;;
9264;SDS011;4669;49.594;10.958;2023-09-30T07:43:50;5.68;;;2.40;;
9264;SDS011;4669;49.594;10.958;2023-09-30T07:48:52;5.65;;;2.50;;
9264;SDS011;4669;49.594;10.958;2023-09-30T07:53:55;8.52;;;3.47;;
9264;SDS011;4669;49.594;10.958;2023-09-30T07:58:58;6.55;;;3.22;;
9264;SDS011;4669;49.594;10.958;2023-09-30T08:04:00;6.00;;;2.83;;
9264;SDS011;4669;49.594;10.958;2023-09-30T08:09:02;5.18;;;2.80;;
9264;SDS011;4669;49.594;10.958;2023-09-30T08:14:10;5.50;;;2.30;;
9264;SDS011;4669;49.594;10.958;2023-09-30T08:19:12;3.55;;;2.53;;
9264;SDS011;4669;49.594;10.958;2023-09-30T08:24:14;4.80;;;2.47;;
9264;SDS011;4669;49.594;10.958;2023-09-30T08:29:17;4.40;;;2.38;;
9264;SDS011;4669;49.594;10.958;2023-09-30T08:34:19;4.18;;;2.45;;
9264;SDS011;4669;49.594;10.958;2023-09-30T08:39:23;5.05;;;2.78;;
9264;SDS011;4669;49.594;10.958;2023-09-30T08:44:28;6.13;;;2.53;;
9264;SDS011;4669;49.594;10.958;2023-09-30T08:49:31;4.63;;;2.28;;
9264;SDS011;4669;49.594;10.958;2023-09-30T08:54:35;8.35;;;2.67;;
9264;SDS011;4669;49.594;10.958;2023-09-30T08:59:40;4.22;;;2.42;;
9264;SDS011;4669;49.594;10.958;2023-09-30T09:04:44;6.50;;;2.85;;
9264;SDS011;4669;49.594;10.958;2023-09-30T09:15:06;7.70;;;2.70;;
9264;SDS011;4669;49.594;10.958;2023-09-30T09:20:10;5.72;;;3.10;;
9264;SDS011;4669;49.594;10.958;2023-09-30T09:25:14;6.97;;;2.80;;
9264;SDS011;4669;49.594;10.958;2023-09-30T09:30:19;6.22;;;2.53;;
9264;SDS011;4669;49.594;10.958;2023-09-30T09:35:22;5.93;;;3.13;;
9264;SDS011;4669;49.594;10.958;2023-09-30T09:40:28;5.15;;;2.67;;
9264;SDS011;4669;49.594;10.958;2023-09-30T09:45:33;3.83;;;2.30;;
9264;SDS011;4669;49.594;10.958;2023-09-30T09:50:36;7.10;;;2.90;;
9264;SDS011;4669;49.594;10.958;2023-09-30T09:55:38;6.45;;;2.60;;
9264;SDS011;4669;49.594;10.958;2023-09-30T10:00:45;6.68;;;2.83;;
9264;SDS011;4669;49.594;10.958;2023-09-30T10:05:47;5.63;;;2.70;;
9264;SDS011;4669;49.594;10.958;2023-09-30T10:10:49;5.05;;;2.10;;
9264;SDS011;4669;49.594;10.958;2023-09-30T10:15:53;5.88;;;2.47;;
9264;SDS011;4669;49.594;10.958;2023-09-30T10:20:55;3.17;;;2.10;;
9264;SDS011;4669;49.594;10.958;2023-09-30T10:26:13;6.90;;;2.33;;
9264;SDS011;4669;49.594;10.958;2023-09-30T10:31:19;5.53;;;2.95;;
9264;SDS011;4669;49.594;10.958;2023-09-30T10:36:27;5.03;;;2.72;;
9264;SDS011;4669;49.594;10.958;2023-09-30T10:41:49;4.95;;;2.63;;
9264;SDS011;4669;49.594;10.958;2023-09-30T10:46:52;5.43;;;3.28;;
9264;SDS011;4669;49.594;10.958;2023-09-30T10:51:55;5.35;;;2.58;;
9264;SDS011;4669;49.594;10.958;2023-09-30T10:56:59;5.03;;;3.08;;
9264;SDS011;4669;49.594;10.958;2023-09-30T11:02:05;4.20;;;2.30;;
9264;SDS011;4669;49.594;10.958;2023-09-30T11:07:20;7.68;;;2.85;;
9264;SDS011;4669;49.594;10.958;2023-09-30T11:12:24;13.93;;;7.50;;
9264;SDS011;4669;49.594;10.958;2023-09-30T11:17:27;4.10;;;2.20;;
9264;SDS011;4669;49.594;10.958;2023-09-30T11:22:29;5.82;;;3.03;;
9264;SDS011;4669;49.594;10.958;2023-09-30T11:27:31;5.40;;;2.60;;
9264;SDS011;4669;49.594;10.958;2023-09-30T11:32:35;5.53;;;2.63;;
9264;SDS011;4669;49.594;10.958;2023-09-30T11:37:36;6.75;;;3.15;;
9264;SDS011;4669;49.594;10.958;2023-09-30T11:42:41;6.20;;;2.92;;
9264;SDS011;4669;49.594;10.958;2023-09-30T11:48:16;7.05;;;2.60;;
9264;SDS011;4669;49.594;10.958;2023-09-30T11:53:20;11.70;;;2.78;;
9264;SDS011;4669;49.594;10.958;2023-09-30T11:58:22;7.35;;;3.13;;
9264;SDS011;4669;49.594;10.958;2023-09-30T12:03:26;5.50;;;2.85;;
9264;SDS011;4669;49.594;10.958;2023-09-30T12:08:28;5.13;;;2.70;;
9264;SDS011;4669;49.594;10.958;2023-09-30T12:13:30;6.07;;;2.58;;
9264;SDS011;4669;49.594;10.958;2023-09-30T12:18:33;4.68;;;2.80;;
9264;SDS011;4669;49.594;10.958;2023-09-30T12:23:35;5.68;;;2.88;;
9264;SDS011;4669;49.594;10.958;2023-09-30T12:28:37;5.68;;;2.85;;
9264;SDS011;4669;49.594;10.958;2023-09-30T12:33:42;5.43;;;3.00;;
9264;SDS011;4669;49.594;10.958;2023-09-30T12:38:44;6.53;;;3.80;;
9264;SDS011;4669;49.594;10.958;2023-09-30T12:43:46;6.07;;;3.03;;
9264;SDS011;4669;49.594;10.958;2023-09-30T12:48:49;6.70;;;3.08;;
9264;SDS011;4669;49.594;10.958;2023-09-30T12:53:51;5.78;;;3.13;;
9264;SDS011;4669;49.594;10.958;2023-09-30T12:58:53;4.95;;;2.65;;
9264;SDS011;4669;49.594;10.958;2023-09-30T13:03:57;6.15;;;3.30;;
9264;SDS011;4669;49.594;10.958;2023-09-30T13:08:58;8.68;;;3.95;;
9264;SDS011;4669;49.594;10.958;2023-09-30T13:14:00;8.10;;;3.60;;
9264;SDS011;4669;49.594;10.958;2023-09-30T13:19:04;9.23;;;4.18;;
9264;SDS011;4669;49.594;10.958;2023-09-30T13:24:06;6.88;;;3.80;;
9264;SDS011;4669;49.594;10.958;2023-09-30T13:29:10;9.05;;;4.55;;
9264;SDS011;4669;49.594;10.958;2023-09-30T13:34:14;10.27;;;4.10;;
9264;SDS011;4669;49.594;10.958;2023-09-30T13:39:16;6.88;;;3.70;;
9264;SDS011;4669;49.594;10.958;2023-09-30T13:44:18;8.38;;;4.20;;
9264;SDS011;4669;49.594;10.958;2023-09-30T13:49:21;8.02;;;5.15;;
9264;SDS011;4669;49.594;10.958;2023-09-30T13:54:23;10.65;;;3.78;;
9264;SDS011;4669;49.594;10.958;2023-09-30T13:59:25;8.68;;;4.30;;
9264;SDS011;4669;49.594;10.958;2023-09-30T14:04:30;8.60;;;4.30;;
9264;SDS011;4669;49.594;10.958;2023-09-30T14:09:32;6.25;;;3.85;;
9264;SDS011;4669;49.594;10.958;2023-09-30T14:14:34;8.63;;;4.30;;
9264;SDS011;4669;49.594;10.958;2023-09-30T14:19:38;6.75;;;4.30;;
9264;SDS011;4669;49.594;10.958;2023-09-30T14:24:40;9.57;;;4.10;;
9264;SDS011;4669;49.594;10.958;2023-09-30T14:29:42;7.75;;;4.47;;
9264;SDS011;4669;49.594;10.958;2023-09-30T14:34:47;7.35;;;4.40;;
9264;SDS011;4669;49.594;10.958;2023-09-30T14:39:49;6.97;;;4.32;;
9264;SDS011;4669;49.594;10.958;2023-09-30T14:44:51;8.93;;;4.80;;
9264;SDS011;4669;49.594;10.958;2023-09-30T14:49:54;7.22;;;4.35;;
9264;SDS011;4669;49.594;10.958;2023-09-30T14:54:56;6.88;;;4.18;;
9264;SDS011;4669;49.594;10.958;2023-09-30T14:59:58;7.80;;;3.88;;
9264;SDS011;4669;49.594;10.958;2023-09-30T15:05:01;10.32;;;4.88;;
9264;SDS011;4669;49.594;10.958;2023-09-30T15:10:04;7.15;;;4.53;;
9264;SDS011;4669;49.594;10.958;2023-09-30T15:15:07;7.47;;;4.93;;
9264;SDS011;4669;49.594;10.958;2023-09-30T15:20:11;9.90;;;7.50;;
9264;SDS011;4669;49.594;10.958;2023-09-30T15:25:13;12.35;;;7.88;;
9264;SDS011;4669;49.594;10.958;2023-09-30T15:30:17;9.00;;;5.30;;
9264;SDS011;4669;49.594;10.958;2023-09-30T15:35:20;7.97;;;4.43;;
9264;SDS011;4669;49.594;10.958;2023-09-30T15:40:22;5.72;;;3.50;;
9264;SDS011;4669;49.594;10.958;2023-09-30T15:45:24;8.68;;;4.75;;
9264;SDS011;4669;49.594;10.958;2023-09-30T15:50:28;9.88;;;5.22;;
9264;SDS011;4669;49.594;10.958;2023-09-30T15:55:30;12.52;;;6.75;;
9264;SDS011;4669;49.594;10.958;2023-09-30T16:00:34;14.40;;;6.65;;
9264;SDS011;4669;49.594;10.958;2023-09-30T16:05:38;6.93;;;4.68;;
9264;SDS011;4669;49.594;10.958;2023-09-30T16:10:40;7.88;;;4.93;;
9264;SDS011;4669;49.594;10.958;2023-09-30T16:15:44;9.00;;;5.22;;
9264;SDS011;4669;49.594;10.958;2023-09-30T16:20:49;9.07;;;5.50;;
9264;SDS011;4669;49.594;10.958;2023-09-30T16:25:51;15.38;;;10.18;;
9264;SDS011;4669;49.594;10.958;2023-09-30T16:30:53;10.70;;;6.72;;
9264;SDS011;4669;49.594;10.958;2023-09-30T16:35:56;11.10;;;6.43;;
9264;SDS011;4669;49.594;10.958;2023-09-30T16:40:58;7.38;;;4.95;;
9264;SDS011;4669;49.594;10.958;2023-09-30T16:46:00;9.18;;;5.70;;
9264;SDS011;4669;49.594;10.958;2023-09-30T16:51:05;9.85;;;6.43;;
9264;SDS011;4669;49.594;10.958;2023-09-30T16:56:09;12.60;;;6.78;;
9264;SDS011;4669;49.594;10.958;2023-09-30T17:01:11;11.02;;;6.90;;
9264;SDS011;4669;49.594;10.958;2023-09-30T17:06:15;17.27;;;7.53;;
9264;SDS011;4669;49.594;10.958;2023-09-30T17:11:17;12.05;;;7.15;;
9264;SDS011;4669;49.594;10.958;2023-09-30T17:16:19;9.63;;;6.88;;
9264;SDS011;4669;49.594;10.958;2023-09-30T17:21:23;12.48;;;6.88;;
9264;SDS011;4669;49.594;10.958;2023-09-30T17:26:25;13.13;;;8.80;;
9264;SDS011;4669;49.594;10.958;2023-09-30T17:31:27;18.10;;;12.38;;
9264;SDS011;4669;49.594;10.958;2023-09-30T17:36:30;13.55;;;9.88;;
9264;SDS011;4669;49.594;10.958;2023-09-30T17:41:32;13.35;;;9.18;;
9264;SDS011;4669;49.594;10.958;2023-09-30T17:46:34;14.45;;;8.45;;
9264;SDS011;4669;49.594;10.958;2023-09-30T17:51:37;12.25;;;8.55;;
9264;SDS011;4669;49.594;10.958;2023-09-30T17:56:39;15.23;;;9.20;;
9264;SDS011;4669;49.594;10.958;2023-09-30T18:01:42;14.43;;;9.35;;
9264;SDS011;4669;49.594;10.958;2023-09-30T18:06:45;14.18;;;8.35;;
9264;SDS011;4669;49.594;10.958;2023-09-30T18:11:47;12.05;;;8.13;;
9264;SDS011;4669;49.594;10.958;2023-09-30T18:16:51;10.93;;;8.10;;
9264;SDS011;4669;49.594;10.958;2023-09-30T18:21:54;16.75;;;10.45;;
9264;SDS011;4669;49.594;10.958;2023-09-30T18:26:56;18.60;;;10.02;;
9264;SDS011;4669;49.594;10.958;2023-09-30T18:31:58;13.32;;;8.98;;
9264;SDS011;4669;49.594;10.958;2023-09-30T18:37:01;11.80;;;9.38;;
9264;SDS011;4669;49.594;10.958;2023-09-30T18:42:04;19.73;;;10.90;;
9264;SDS011;4669;49.594;10.958;2023-09-30T18:47:05;19.20;;;11.82;;
9264;SDS011;4669;49.594;10.958;2023-09-30T18:52:09;18.70;;;11.35;;
9264;SDS011;4669;49.594;10.958;2023-09-30T18:57:14;17.45;;;11.98;;
9264;SDS011;4669;49.594;10.958;2023-09-30T19:02:16;18.33;;;11.93;;
9264;SDS011;4669;49.594;10.958;2023-09-30T19:07:20;16.27;;;11.18;;
9264;SDS011;4669;49.594;10.958;2023-09-30T19:12:21;15.68;;;11.65;;
9264;SDS011;4669;49.594;10.958;2023-09-30T19:17:23;15.00;;;10.75;;
9264;SDS011;4669;49.594;10.958;2023-09-30T19:22:26;12.75;;;9.02;;
9264;SDS011;4669;49.594;10.958;2023-09-30T19:27:28;15.98;;;10.52;;
9264;SDS011;4669;49.594;10.958;2023-09-30T19:32:31;14.23;;;10.50;;
9264;SDS011;4669;49.594;10.958;2023-09-30T19:37:35;17.08;;;12.18;;
9264;SDS011;4669;49.594;10.958;2023-09-30T19:42:37;15.70;;;11.82;;
9264;SDS011;4669;49.594;10.958;2023-09-30T19:47:40;20.00;;;11.75;;
9264;SDS011;4669;49.594;10.958;2023-09-30T19:52:43;16.65;;;10.77;;
9264;SDS011;4669;49.594;10.958;2023-09-30T19:57:45;14.63;;;11.10;;
9264;SDS011;4669;49.594;10.958;2023-09-30T20:02:47;19.85;;;13.45;;
9264;SDS011;4669;49.594;10.958;2023-09-30T20:07:50;19.05;;;12.63;;
9264;SDS011;4669;49.594;10.958;2023-09-30T20:12:52;16.75;;;11.50;;
9264;SDS011;4669;49.594;10.958;2023-09-30T20:17:54;19.58;;;12.85;;
9264;SDS011;4669;49.594;10.958;2023-09-30T20:22:57;35.13;;;20.08;;
9264;SDS011;4669;49.594;10.958;2023-09-30T20:27:59;47.08;;;26.20;;
9264;SDS011;4669;49.594;10.958;2023-09-30T20:33:05;32.17;;;19.98;;
9264;SDS011;4669;49.594;10.958;2023-09-30T20:38:09;28.20;;;15.80;;
9264;SDS011;4669;49.594;10.958;2023-09-30T20:43:11;19.13;;;13.77;;
9264;SDS011;4669;49.594;10.958;2023-09-30T20:48:13;17.85;;;12.35;;
9264;SDS011;4669;49.594;10.958;2023-09-30T20:53:16;17.95;;;12.55;;
9264;SDS011;4669;49.594;10.958;2023-09-30T20:58:18;15.88;;;12.10;;
9264;SDS011;4669;49.594;10.958;2023-09-30T21:03:20;20.80;;;13.30;;
9264;SDS011;4669;49.594;10.958;2023-09-30T21:08:23;16.55;;;12.43;;
9264;SDS011;4669;49.594;10.958;2023-09-30T21:13:25;21.23;;;13.88;;
9264;SDS011;4669;49.594;10.958;2023-09-30T21:18:27;18.17;;;12.10;;
9264;SDS011;4669;49.594;10.958;2023-09-30T21:23:30;18.17;;;11.18;;
9264;SDS011;4669;49.594;10.958;2023-09-30T21:28:32;42.45;;;22.50;;
9264;SDS011;4669;49.594;10.958;2023-09-30T21:33:34;44.28;;;22.33;;
9264;SDS011;4669;49.594;10.958;2023-09-30T21:38:38;28.52;;;14.25;;
9264;SDS011;4669;49.594;10.958;2023-09-30T21:43:40;21.17;;;13.13;;
9264;SDS011;4669;49.594;10.958;2023-09-30T21:48:42;23.52;;;13.98;;
9264;SDS011;4669;49.594;10.958;2023-09-30T21:53:45;17.88;;;12.45;;
9264;SDS011;4669;49.594;10.958;2023-09-30T21:58:47;15.93;;;10.40;;
